Bagley, MN

10:17 PM CDT on August 28, 2016 (GMT -0500)
Shevlin | | Change Station

Elev 1486 ft 47.53 °N, 95.29 °W | Updated 8 seconds ago

Light Thunderstorms and Rain
Light Thunderstorm Rain
73.4 °F
Feels Like 71 °F
N
5.8
Wind Variable Wind from South
Gusts 7.4 mph

Today
High -- | Low -- °F
--% Chance of Precip.
Yesterday
High -- | Low -- °F
Precip. -- in
Pressure 30.02 in
Visibility 10.0 miles
Clouds Scattered Clouds 3400 ft
Mostly Cloudy 6500 ft
Mostly Cloudy 7500 ft
Heat Index 71 °F
Dew Point 71 °F
Humidity 92%
Rainfall 0.00 in
Snow Depth Not available.
6:35 AM 8:08 PM
Waning Crescent, 11% visible
METAR KFSE 290255Z AUTO 18013G17KT 10SM -VCTSRA SCT034 BKN065 BKN075 22/21 A3002 RMK AO2 LTG DSNT ALQDS
Pressure 30.02 in
Visibility 10.0 miles
Clouds Scattered Clouds 3400 ft
Mostly Cloudy 6500 ft
Mostly Cloudy 7500 ft
Heat Index 71 °F
Dew Point 71 °F
Humidity 92%
Rainfall 0.00 in
Snow Depth Not available.
6:35 AM 8:08 PM
Waning Crescent, 11% visible
METAR KFSE 290255Z AUTO 18013G17KT 10SM -VCTSRA SCT034 BKN065 BKN075 22/21 A3002 RMK AO2 LTG DSNT ALQDS

10-Day Weather Forecast

Almanac

Astronomy

Aug. 28, 2016 Rise Set
Actual Time
Civil Twilight
Nautical Twilight
Astronomical Twilight
Moon
Length of Visible Light
Length of Day
Tomorrow will be .
, % of the Moon is Illuminated

Today's Extremes

State Highs State Lows

Community

WunderPhotos

Upload Photos

1,935,778 photos uploaded!

WunderBlog® & News

Nearby

Air Quality

  Air Quality AQ Index Pollutant
Not available.

Snow Depth

Station Depth Elevation

Earthquake Activity

City Distance Mag. Time & Date
Minimum magnitude displayed is 2.5.

Coastal Water Temperatures

Place Temperature

Stations

Nearby Weather Stations

Station Location Temp. Windchill Dew Point Humidity Wind Precip. Elev Updated Type
                   

Watches & Warnings

There are currently no watches in effect.